createdAt,value
2023-02-11T00:00:58.251Z,65.78
2023-02-11T00:03:28.226Z,65.13
2023-02-11T00:06:02.221Z,65.97
2023-02-11T00:08:32.058Z,66.17
2023-02-11T00:11:01.870Z,65.53
2023-02-11T00:13:31.733Z,65.40
2023-02-11T00:16:10.444Z,65.65
2023-02-11T00:18:40.671Z,66.04
2023-02-11T00:21:12.636Z,66.61
2023-02-11T00:23:42.563Z,66.14
2023-02-11T00:26:16.007Z,66.57
2023-02-11T00:28:46.993Z,66.79
2023-02-11T00:31:21.529Z,67.18
2023-02-11T00:33:52.146Z,66.35
2023-02-11T00:36:24.177Z,66.17
2023-02-11T00:38:55.698Z,66.26
2023-02-11T00:41:26.598Z,66.57
2023-02-11T00:43:56.658Z,66.36
2023-02-11T00:46:29.187Z,66.45
2023-02-11T00:48:59.181Z,65.81
2023-02-11T00:51:30.175Z,65.72
2023-02-11T00:54:00.205Z,65.58
2023-02-11T00:56:30.233Z,65.55
2023-02-11T00:59:00.512Z,66.15
2023-02-11T01:01:33.059Z,66.22
2023-02-11T01:04:03.039Z,66.63
2023-02-11T01:06:32.907Z,65.76
2023-02-11T01:09:02.741Z,65.89
2023-02-11T01:11:32.730Z,65.81
2023-02-11T01:14:02.794Z,65.07
2023-02-11T01:16:35.253Z,65.86
2023-02-11T01:19:05.140Z,65.40
2023-02-11T01:21:35.056Z,65.62
2023-02-11T01:24:05.027Z,65.44
2023-02-11T01:26:34.986Z,65.28
2023-02-11T01:29:05.058Z,64.91
2023-02-11T01:31:37.589Z,64.19
2023-02-11T01:34:07.548Z,65.11
2023-02-11T01:36:39.995Z,65.05
2023-02-11T01:39:10.702Z,64.11
2023-02-11T01:41:42.072Z,64.58
2023-02-11T01:44:27.854Z,64.57
2023-02-11T01:47:00.616Z,64.51
2023-02-11T01:49:34.142Z,64.98
2023-02-11T01:52:09.749Z,65.07
2023-02-11T01:54:58.029Z,65.49
2023-02-11T01:57:33.687Z,65.04
2023-02-11T02:00:24.755Z,64.50
2023-02-11T02:03:03.365Z,64.53
2023-02-11T02:05:41.573Z,64.53
2023-02-11T02:08:20.273Z,64.80
2023-02-11T02:10:56.245Z,64.71
2023-02-11T02:13:26.550Z,65.31
2023-02-11T02:15:58.999Z,65.87
2023-02-11T02:18:45.292Z,66.15
2023-02-11T02:21:55.430Z,66.17
2023-02-11T02:25:01.151Z,66.45
2023-02-11T02:27:51.476Z,66.98
2023-02-11T02:30:50.856Z,67.16
2023-02-11T02:33:40.108Z,66.56
2023-02-11T02:36:21.100Z,67.32
2023-02-11T02:38:58.371Z,67.31
2023-02-11T02:41:33.790Z,67.76
2023-02-11T02:44:04.498Z,67.54
2023-02-11T02:46:37.106Z,67.85
2023-02-11T02:49:15.083Z,67.47
2023-02-11T02:52:09.843Z,67.27
2023-02-11T02:55:08.778Z,67.34
2023-02-11T02:57:57.484Z,67.74
2023-02-11T03:00:36.174Z,68.70
2023-02-11T03:03:22.599Z,68.37
2023-02-11T03:06:04.393Z,68.17
2023-02-11T03:08:41.604Z,68.49
2023-02-11T03:11:14.613Z,67.46
2023-02-11T03:13:47.406Z,67.99
2023-02-11T03:16:22.388Z,67.97
2023-02-11T03:18:55.468Z,67.51
2023-02-11T03:21:28.797Z,66.97
2023-02-11T03:24:05.595Z,67.06
2023-02-11T03:26:43.215Z,67.21
2023-02-11T03:29:21.793Z,67.58
2023-02-11T03:32:02.321Z,67.43
2023-02-11T03:34:41.068Z,67.94
2023-02-11T03:37:20.613Z,67.22
2023-02-11T03:39:57.387Z,67.89
2023-02-11T03:42:36.007Z,67.98
2023-02-11T03:45:11.981Z,67.54
2023-02-11T03:47:48.848Z,67.56
2023-02-11T03:50:21.559Z,68.06
2023-02-11T03:52:55.200Z,68.77
2023-02-11T03:55:28.373Z,68.63
2023-02-11T03:57:58.781Z,68.83
2023-02-11T04:00:33.959Z,68.84
2023-02-11T04:03:03.923Z,68.69
2023-02-11T04:05:34.099Z,68.26
2023-02-11T04:08:07.664Z,67.74
2023-02-11T04:10:37.486Z,67.70
2023-02-11T04:13:07.444Z,68.09
2023-02-11T04:15:37.355Z,68.01
2023-02-11T04:18:07.590Z,68.61
2023-02-11T04:20:37.449Z,68.10
2023-02-11T04:23:10.249Z,68.45
2023-02-11T04:25:40.149Z,67.82
2023-02-11T04:28:10.102Z,67.81
2023-02-11T04:30:40.031Z,67.66
2023-02-11T04:33:09.942Z,68.20
2023-02-11T04:35:39.748Z,68.33
2023-02-11T04:38:12.199Z,68.65
2023-02-11T04:40:42.567Z,68.35
2023-02-11T04:43:12.542Z,68.41
2023-02-11T04:45:42.440Z,67.96
2023-02-11T04:48:12.368Z,68.10
2023-02-11T04:50:42.208Z,68.21
2023-02-11T04:53:14.695Z,68.54
2023-02-11T04:55:44.552Z,68.61
2023-02-11T04:58:14.407Z,69.07
2023-02-11T05:00:44.339Z,68.70
2023-02-11T05:03:14.288Z,69.20
2023-02-11T05:05:44.905Z,69.27
2023-02-11T05:08:17.420Z,69.10
2023-02-11T05:10:49.916Z,69.51
2023-02-11T05:13:19.790Z,69.35
2023-02-11T05:15:50.136Z,68.82
2023-02-11T05:18:20.176Z,68.59
2023-02-11T05:20:50.064Z,68.30
2023-02-11T05:23:22.562Z,68.90
2023-02-11T05:25:52.670Z,68.76
2023-02-11T05:28:22.667Z,69.13
2023-02-11T05:30:52.522Z,69.23
2023-02-11T05:33:22.840Z,69.20
2023-02-11T05:35:52.949Z,69.13
2023-02-11T05:38:25.859Z,68.94
2023-02-11T05:40:55.822Z,68.89
2023-02-11T05:43:25.951Z,68.87
2023-02-11T05:45:55.912Z,69.19
2023-02-11T05:48:25.905Z,68.58
2023-02-11T05:50:55.681Z,68.76
2023-02-11T05:53:28.599Z,69.22
2023-02-11T05:55:58.442Z,69.08
2023-02-11T05:58:28.280Z,69.38
2023-02-11T06:00:58.131Z,69.37
2023-02-11T06:03:28.021Z,69.82
2023-02-11T06:05:57.916Z,70.37
2023-02-11T06:08:30.855Z,70.55
2023-02-11T06:11:00.687Z,70.60
2023-02-11T06:13:30.562Z,70.45
2023-02-11T06:16:00.878Z,70.70
2023-02-11T06:18:32.182Z,70.49
2023-02-11T06:21:02.345Z,70.49
2023-02-11T06:23:34.807Z,70.64
2023-02-11T06:26:06.466Z,70.64
2023-02-11T06:28:39.316Z,70.70
2023-02-11T06:31:11.909Z,70.67
2023-02-11T06:33:42.379Z,70.77
2023-02-11T06:36:18.302Z,70.81
2023-02-11T06:38:51.760Z,70.71
2023-02-11T06:41:22.814Z,70.50
2023-02-11T06:43:52.954Z,70.37
2023-02-11T06:46:23.145Z,70.17
2023-02-11T06:48:53.062Z,70.10
2023-02-11T06:51:22.948Z,69.92
2023-02-11T06:53:55.469Z,69.73
2023-02-11T06:56:27.489Z,69.41
2023-02-11T06:58:58.209Z,69.51
2023-02-11T07:01:30.815Z,69.59
2023-02-11T07:04:00.658Z,69.38
2023-02-11T07:06:30.598Z,69.72
2023-02-11T07:09:03.100Z,69.49
2023-02-11T07:11:34.252Z,69.65
2023-02-11T07:14:08.399Z,69.33
2023-02-11T07:16:39.027Z,69.19
2023-02-11T07:19:08.927Z,69.19
2023-02-11T07:21:38.817Z,69.47
2023-02-11T07:24:13.309Z,69.66
2023-02-11T07:26:44.689Z,69.45
2023-02-11T07:29:14.556Z,69.25
2023-02-11T07:31:44.577Z,68.48
2023-02-11T07:34:14.518Z,68.37
2023-02-11T07:36:45.219Z,69.46
2023-02-11T07:39:18.005Z,69.00
2023-02-11T07:41:49.334Z,68.80
2023-02-11T07:44:20.027Z,68.36
2023-02-11T07:46:50.867Z,68.67
2023-02-11T07:49:20.774Z,69.06
2023-02-11T07:51:51.451Z,69.13
2023-02-11T07:54:24.115Z,68.70
2023-02-11T07:56:54.064Z,69.23
2023-02-11T07:59:24.948Z,68.39
2023-02-11T08:01:54.835Z,69.61
2023-02-11T08:04:24.682Z,69.19
2023-02-11T08:06:59.038Z,69.06
2023-02-11T08:09:34.350Z,69.13
2023-02-11T08:12:04.418Z,69.74
2023-02-11T08:14:34.906Z,69.24
2023-02-11T08:17:04.746Z,68.94
2023-02-11T08:19:35.312Z,67.44
2023-02-11T08:22:05.264Z,67.93
2023-02-11T08:24:37.729Z,68.31
2023-02-11T08:27:07.580Z,68.38
2023-02-11T08:29:37.505Z,68.66
2023-02-11T08:32:07.626Z,68.38
2023-02-11T08:34:37.899Z,68.65
2023-02-11T08:37:09.067Z,68.74
2023-02-11T08:39:41.508Z,67.98
2023-02-11T08:42:11.415Z,67.99
2023-02-11T08:44:41.285Z,67.75
2023-02-11T08:47:11.157Z,67.28
2023-02-11T08:49:42.395Z,67.14
2023-02-11T08:52:12.263Z,67.17
2023-02-11T08:54:44.757Z,66.44
2023-02-11T08:57:14.869Z,66.40
2023-02-11T08:59:44.730Z,65.67
2023-02-11T09:02:16.794Z,65.89
2023-02-11T09:04:46.674Z,65.15
2023-02-11T09:07:16.521Z,65.01
2023-02-11T09:09:48.947Z,65.09
2023-02-11T09:12:18.912Z,64.87
2023-02-11T09:14:48.938Z,65.24
2023-02-11T09:17:18.823Z,65.38
2023-02-11T09:19:48.670Z,65.73
2023-02-11T09:22:18.521Z,65.08
2023-02-11T09:24:50.981Z,64.75
2023-02-11T09:27:22.833Z,64.24
2023-02-11T09:29:53.647Z,64.09
2023-02-11T09:32:23.513Z,63.41
2023-02-11T09:34:53.580Z,63.26
2023-02-11T09:37:23.448Z,62.95
2023-02-11T09:39:56.085Z,62.90
2023-02-11T09:42:46.631Z,62.64
2023-02-11T09:45:22.242Z,62.27
2023-02-11T09:47:58.387Z,61.57
2023-02-11T09:50:33.568Z,61.10
2023-02-11T09:53:07.668Z,59.98
2023-02-11T09:55:44.676Z,59.33
2023-02-11T09:58:17.511Z,58.13
2023-02-11T10:00:55.413Z,57.84
2023-02-11T10:03:47.367Z,57.10
2023-02-11T10:06:36.844Z,56.18
2023-02-11T10:09:30.989Z,56.05
2023-02-11T10:12:18.947Z,56.18
2023-02-11T10:15:04.447Z,56.47
2023-02-11T10:17:47.484Z,56.45
2023-02-11T10:20:28.223Z,56.09
2023-02-11T10:23:03.391Z,55.40
2023-02-11T10:25:39.767Z,54.80
2023-02-11T10:28:19.438Z,55.64
2023-02-11T10:31:00.367Z,55.95
2023-02-11T10:33:37.589Z,55.99
2023-02-11T10:36:08.935Z,56.29
2023-02-11T10:38:39.781Z,56.33
2023-02-11T10:41:09.756Z,56.00
2023-02-11T10:43:45.871Z,55.59
2023-02-11T10:46:21.267Z,55.74
2023-02-11T10:48:53.882Z,54.60
2023-02-11T10:51:26.699Z,54.76
2023-02-11T10:54:21.372Z,54.38
2023-02-11T10:56:54.338Z,53.72
2023-02-11T10:59:32.081Z,53.03
2023-02-11T11:02:04.927Z,52.45
2023-02-11T11:04:43.075Z,52.44
2023-02-11T11:07:18.127Z,52.03
2023-02-11T11:09:52.496Z,51.56
2023-02-11T11:12:35.387Z,49.92
2023-02-11T11:15:21.863Z,48.34
2023-02-11T11:17:52.456Z,48.37
2023-02-11T11:20:27.517Z,48.96
2023-02-11T11:23:16.921Z,43.44
2023-02-11T11:25:49.251Z,37.02
2023-02-11T11:28:26.950Z,34.41
2023-02-11T11:31:02.322Z,33.63
2023-02-11T11:33:36.075Z,33.86
2023-02-11T11:36:12.747Z,32.32
2023-02-11T11:38:51.044Z,31.24
2023-02-11T11:41:28.603Z,28.65
2023-02-11T11:44:01.291Z,29.64
2023-02-11T11:46:36.724Z,28.56
2023-02-11T11:49:28.082Z,30.36
2023-02-11T11:52:12.649Z,25.51
2023-02-11T11:54:49.134Z,23.63
2023-02-11T11:57:24.935Z,26.10
2023-02-11T11:59:55.163Z,26.13
2023-02-11T12:02:54.477Z,25.06
2023-02-11T12:05:30.795Z,23.71
2023-02-11T12:08:16.639Z,26.76
2023-02-11T12:11:08.481Z,22.75
2023-02-11T12:13:52.209Z,23.96
2023-02-11T12:16:36.545Z,21.51
2023-02-11T12:19:42.578Z,25.81
2023-02-11T12:22:27.156Z,24.32
2023-02-11T12:25:12.536Z,21.49
2023-02-11T12:27:57.516Z,21.99
2023-02-11T12:30:52.721Z,22.76
2023-02-11T12:33:41.980Z,22.68
2023-02-11T12:36:29.751Z,22.69
2023-02-11T12:39:22.233Z,22.11
2023-02-11T12:42:36.962Z,19.31
2023-02-11T12:45:34.206Z,20.05
2023-02-11T12:48:22.896Z,17.96
2023-02-11T12:51:02.474Z,19.68
2023-02-11T12:53:58.294Z,20.61
2023-02-11T12:56:39.696Z,22.05
2023-02-11T12:59:20.552Z,21.06
2023-02-11T13:01:54.956Z,19.11
2023-02-11T13:04:32.191Z,21.64
2023-02-11T13:07:08.470Z,21.62
2023-02-11T13:09:48.255Z,17.89
2023-02-11T13:12:32.513Z,17.64
2023-02-11T13:15:09.391Z,20.54
2023-02-11T13:17:47.717Z,19.12
2023-02-11T13:20:29.082Z,16.36
2023-02-11T13:23:10.473Z,19.62
2023-02-11T13:25:50.148Z,19.97
2023-02-11T13:28:40.268Z,20.73
2023-02-11T13:31:16.245Z,18.61
2023-02-11T13:33:49.544Z,19.22
2023-02-11T13:36:26.017Z,19.07
2023-02-11T13:39:00.513Z,18.30
2023-02-11T13:41:37.181Z,17.68
2023-02-11T13:44:22.854Z,16.58
2023-02-11T13:46:57.411Z,17.28
2023-02-11T13:49:32.647Z,18.60
2023-02-11T13:52:06.115Z,18.22
2023-02-11T13:54:40.159Z,19.01
2023-02-11T13:57:33.551Z,18.50
2023-02-11T14:00:06.828Z,16.29
2023-02-11T14:02:52.343Z,17.66
2023-02-11T14:05:46.431Z,18.97
2023-02-11T14:08:39.394Z,16.90
2023-02-11T14:11:14.762Z,15.63
2023-02-11T14:14:24.013Z,21.80
2023-02-11T14:17:23.804Z,23.55
2023-02-11T14:19:56.573Z,29.74
2023-02-11T14:22:30.130Z,30.20
2023-02-11T14:25:04.359Z,30.61
2023-02-11T14:27:45.006Z,26.17
2023-02-11T14:30:43.739Z,26.47
2023-02-11T14:33:35.206Z,30.39
2023-02-11T14:36:21.785Z,29.44
2023-02-11T14:39:06.791Z,33.81
2023-02-11T14:41:44.185Z,36.28
2023-02-11T14:44:22.199Z,38.56
2023-02-11T14:46:54.922Z,37.88
2023-02-11T14:49:30.392Z,38.28
2023-02-11T14:52:10.056Z,40.83
2023-02-11T14:54:40.323Z,40.88
2023-02-11T14:57:14.182Z,40.81
2023-02-11T14:59:59.086Z,41.04
2023-02-11T15:02:33.275Z,42.45
2023-02-11T15:05:24.314Z,42.66
2023-02-11T15:08:00.850Z,43.31
2023-02-11T15:10:35.755Z,44.62
2023-02-11T15:13:08.232Z,44.49
2023-02-11T15:15:42.584Z,45.25
2023-02-11T15:18:25.755Z,44.14
2023-02-11T15:20:56.059Z,44.60
2023-02-11T15:23:32.224Z,45.61
2023-02-11T15:26:05.657Z,47.07
2023-02-11T15:28:37.887Z,47.75
2023-02-11T15:31:16.397Z,48.61
2023-02-11T15:33:46.423Z,47.91
2023-02-11T15:36:19.065Z,47.81
2023-02-11T15:39:21.441Z,48.53
2023-02-11T15:41:51.338Z,49.70
2023-02-11T15:44:32.093Z,49.77
2023-02-11T15:47:02.519Z,50.36
2023-02-11T15:49:33.406Z,50.10
2023-02-11T15:52:03.407Z,50.72
2023-02-11T15:54:35.853Z,51.05
2023-02-11T15:57:10.467Z,50.19
2023-02-11T15:59:43.883Z,50.89
2023-02-11T16:02:21.984Z,51.82
2023-02-11T16:04:59.082Z,51.19
2023-02-11T16:07:46.082Z,51.17
2023-02-11T16:10:30.932Z,51.69
2023-02-11T16:13:20.213Z,51.80
2023-02-11T16:15:55.542Z,51.62
2023-02-11T16:18:38.255Z,52.23
2023-02-11T16:21:17.284Z,51.91
2023-02-11T16:23:55.363Z,52.53
2023-02-11T16:26:33.067Z,52.06
2023-02-11T16:29:15.617Z,52.16
2023-02-11T16:31:48.161Z,52.02
2023-02-11T16:34:20.654Z,52.71
2023-02-11T16:36:52.560Z,52.84
2023-02-11T16:39:25.269Z,53.26
2023-02-11T16:41:58.447Z,53.21
2023-02-11T16:44:28.518Z,52.76
2023-02-11T16:47:03.378Z,52.84
2023-02-11T16:49:37.345Z,53.29
2023-02-11T16:52:11.078Z,52.83
2023-02-11T16:54:40.969Z,53.22
2023-02-11T16:57:18.029Z,53.74
2023-02-11T16:59:49.144Z,54.13
2023-02-11T17:02:25.246Z,53.87
2023-02-11T17:04:56.561Z,53.76
2023-02-11T17:07:26.491Z,53.55
2023-02-11T17:09:56.563Z,54.23
2023-02-11T17:12:29.056Z,54.18
2023-02-11T17:14:58.992Z,53.94
2023-02-11T17:17:30.058Z,54.33
2023-02-11T17:19:59.954Z,54.19
2023-02-11T17:22:30.070Z,54.00
2023-02-11T17:25:00.185Z,54.09
2023-02-11T17:27:32.844Z,54.12
2023-02-11T17:30:02.973Z,53.98
2023-02-11T17:32:32.970Z,54.69
2023-02-11T17:35:03.226Z,54.75
2023-02-11T17:37:33.150Z,55.32
2023-02-11T17:40:03.079Z,54.75
2023-02-11T17:42:35.885Z,55.45
2023-02-11T17:45:06.181Z,55.36
2023-02-11T17:47:36.141Z,55.03
2023-02-11T17:50:06.742Z,55.11
2023-02-11T17:52:36.770Z,54.98
2023-02-11T17:55:08.261Z,55.24
2023-02-11T17:57:41.257Z,55.60
2023-02-11T18:00:12.786Z,55.54
2023-02-11T18:02:42.997Z,56.01
2023-02-11T18:05:13.248Z,55.51
2023-02-11T18:07:43.195Z,55.27
2023-02-11T18:10:13.762Z,55.25
2023-02-11T18:12:46.282Z,55.28
2023-02-11T18:15:16.133Z,55.48
2023-02-11T18:17:46.057Z,55.57
2023-02-11T18:20:16.387Z,55.38
2023-02-11T18:22:46.410Z,56.04
2023-02-11T18:25:18.858Z,55.55
2023-02-11T18:27:51.369Z,55.79
2023-02-11T18:30:22.474Z,56.05
2023-02-11T18:32:57.300Z,55.53
2023-02-11T18:35:27.199Z,56.42
2023-02-11T18:37:57.108Z,56.00
2023-02-11T18:40:27.135Z,56.00
2023-02-11T18:43:00.026Z,55.97
2023-02-11T18:45:31.601Z,56.24
2023-02-11T18:48:05.308Z,56.53
2023-02-11T18:50:35.273Z,56.74
2023-02-11T18:53:05.261Z,56.36
2023-02-11T18:55:35.713Z,56.00
2023-02-11T18:58:08.370Z,56.23
2023-02-11T19:00:41.302Z,55.79
2023-02-11T19:03:11.451Z,56.29
2023-02-11T19:05:44.769Z,55.70
2023-02-11T19:08:14.998Z,56.03
2023-02-11T19:10:47.106Z,56.25
2023-02-11T19:13:19.564Z,56.70
2023-02-11T19:15:50.473Z,56.77
2023-02-11T19:18:20.489Z,56.74
2023-02-11T19:20:50.350Z,56.72
2023-02-11T19:23:20.235Z,56.88
2023-02-11T19:25:51.928Z,56.91
2023-02-11T19:28:24.540Z,57.26
2023-02-11T19:30:54.536Z,57.53
2023-02-11T19:33:24.492Z,57.78
2023-02-11T19:35:54.367Z,57.46
2023-02-11T19:38:24.274Z,57.49
2023-02-11T19:40:58.909Z,57.57
2023-02-11T19:43:31.491Z,57.49
2023-02-11T19:46:03.847Z,58.26
2023-02-11T19:48:33.939Z,57.85
2023-02-11T19:51:13.027Z,58.02
2023-02-11T19:53:43.158Z,58.87
2023-02-11T19:56:13.395Z,58.25
2023-02-11T19:58:46.262Z,58.42
2023-02-11T20:01:18.846Z,58.58
2023-02-11T20:03:52.616Z,58.11
2023-02-11T20:06:26.362Z,58.28
2023-02-11T20:08:58.935Z,57.96
2023-02-11T20:11:30.832Z,57.33
2023-02-11T20:14:03.602Z,57.05
2023-02-11T20:16:47.518Z,57.60
2023-02-11T20:19:18.469Z,57.01
2023-02-11T20:21:50.631Z,57.73
2023-02-11T20:24:21.833Z,57.79
2023-02-11T20:26:55.625Z,57.63
2023-02-11T20:29:31.220Z,57.50
2023-02-11T20:32:01.277Z,57.80
2023-02-11T20:34:31.162Z,57.12
2023-02-11T20:37:02.272Z,57.08
2023-02-11T20:39:32.141Z,57.78
2023-02-11T20:42:02.110Z,57.85
2023-02-11T20:44:36.761Z,57.79
2023-02-11T20:47:06.973Z,57.66
2023-02-11T20:49:36.918Z,57.75
2023-02-11T20:52:08.275Z,57.66
2023-02-11T20:54:38.168Z,57.96
2023-02-11T20:57:08.053Z,58.02
2023-02-11T20:59:40.600Z,58.47
2023-02-11T21:02:13.360Z,57.90
2023-02-11T21:04:43.345Z,57.68
2023-02-11T21:07:13.241Z,57.49
2023-02-11T21:09:43.124Z,57.55
2023-02-11T21:12:13.215Z,57.63
2023-02-11T21:14:45.725Z,57.48
2023-02-11T21:17:15.714Z,57.82
2023-02-11T21:19:45.718Z,58.52
2023-02-11T21:22:15.690Z,58.40
2023-02-11T21:24:45.582Z,58.94
2023-02-11T21:27:16.180Z,59.19
2023-02-11T21:29:54.173Z,59.81
2023-02-11T21:32:24.670Z,60.34
2023-02-11T21:34:54.702Z,60.67
2023-02-11T21:37:25.473Z,60.87
2023-02-11T21:39:55.296Z,61.01
2023-02-11T21:42:25.209Z,61.79
2023-02-11T21:44:57.674Z,61.13
2023-02-11T21:47:27.695Z,61.59
2023-02-11T21:49:57.540Z,62.01
2023-02-11T21:52:27.573Z,61.78
2023-02-11T21:54:57.465Z,62.98
2023-02-11T21:57:27.466Z,63.38
2023-02-11T22:00:00.034Z,63.33
2023-02-11T22:02:29.978Z,63.99
2023-02-11T22:04:59.995Z,63.87
2023-02-11T22:07:30.046Z,65.05
2023-02-11T22:09:59.957Z,64.52
2023-02-11T22:12:29.916Z,64.83
2023-02-11T22:15:02.374Z,65.16
2023-02-11T22:17:32.525Z,64.68
2023-02-11T22:20:05.023Z,65.76
2023-02-11T22:22:35.388Z,65.81
2023-02-11T22:25:05.457Z,64.83
2023-02-11T22:27:35.396Z,64.76
2023-02-11T22:30:09.321Z,65.49
2023-02-11T22:32:39.362Z,65.46
2023-02-11T22:35:09.683Z,65.30
2023-02-11T22:37:39.606Z,65.25
2023-02-11T22:40:11.080Z,65.75
2023-02-11T22:42:40.943Z,65.73
2023-02-11T22:45:13.740Z,66.12
2023-02-11T22:47:43.782Z,66.30
2023-02-11T22:50:14.496Z,65.80
2023-02-11T22:52:44.405Z,65.55
2023-02-11T22:55:14.232Z,66.18
2023-02-11T22:57:44.224Z,65.95
2023-02-11T23:00:18.499Z,65.66
2023-02-11T23:02:50.170Z,66.03
2023-02-11T23:05:20.329Z,66.33
2023-02-11T23:07:50.286Z,65.85
2023-02-11T23:10:20.683Z,65.47
2023-02-11T23:12:50.639Z,65.87
2023-02-11T23:15:23.131Z,65.32
2023-02-11T23:17:53.122Z,65.45
2023-02-11T23:20:23.232Z,65.59
2023-02-11T23:22:53.191Z,65.67
2023-02-11T23:25:23.047Z,65.62
2023-02-11T23:27:52.860Z,65.03
2023-02-11T23:30:25.652Z,64.60
2023-02-11T23:32:55.803Z,65.00
2023-02-11T23:35:27.464Z,65.20
2023-02-11T23:37:57.470Z,64.40
2023-02-11T23:40:27.414Z,64.48
2023-02-11T23:42:57.338Z,64.24
2023-02-11T23:45:29.860Z,64.02
2023-02-11T23:47:59.696Z,64.97
2023-02-11T23:50:29.645Z,65.30
2023-02-11T23:52:59.501Z,65.05
2023-02-11T23:55:29.393Z,64.50
2023-02-11T23:57:59.354Z,64.65
